createdAt,value
2022-12-14T00:04:56.269Z,-2.22
2022-12-14T00:11:19.232Z,-2.24
2022-12-14T00:17:39.198Z,-2.26
2022-12-14T00:24:02.290Z,-2.23
2022-12-14T00:30:22.214Z,-2.27
2022-12-14T00:36:45.324Z,-2.3
2022-12-14T00:43:05.172Z,-2.37
2022-12-14T00:49:28.217Z,-2.43
2022-12-14T00:55:49.024Z,-2.49
2022-12-14T01:02:11.280Z,-2.48
2022-12-14T01:08:31.216Z,-2.47
2022-12-14T01:14:54.247Z,-2.43
2022-12-14T01:21:14.163Z,-2.41
2022-12-14T01:27:37.265Z,-2.38
2022-12-14T01:33:57.207Z,-2.36
2022-12-14T01:40:20.184Z,-2.31
2022-12-14T01:46:40.318Z,-2.29
2022-12-14T01:53:03.363Z,-2.26
2022-12-14T01:59:23.197Z,-2.22
2022-12-14T02:05:46.175Z,-2.17
2022-12-14T02:12:06.182Z,-2.16
2022-12-14T02:18:29.335Z,-2.14
2022-12-14T02:24:49.164Z,-2.07
2022-12-14T02:31:12.294Z,-2.09
2022-12-14T02:37:32.160Z,-2.12
2022-12-14T02:43:55.224Z,-2.14
2022-12-14T02:50:15.167Z,-2.21
2022-12-14T02:56:38.176Z,-2.26
2022-12-14T03:02:58.162Z,-2.29
2022-12-14T03:09:21.222Z,-2.27
2022-12-14T03:15:43.159Z,-2.24
2022-12-14T03:22:06.163Z,-2.26
2022-12-14T03:28:26.154Z,-2.28
2022-12-14T03:34:49.165Z,-2.31
2022-12-14T03:41:09.149Z,-2.32
2022-12-14T03:47:32.184Z,-2.31
2022-12-14T03:53:52.187Z,-2.29
2022-12-14T04:00:15.218Z,-2.2
2022-12-14T04:22:42.245Z,-1.88
2022-12-14T04:29:05.190Z,-1.84
2022-12-14T04:35:25.174Z,-1.84
2022-12-14T04:41:48.245Z,-1.92
2022-12-14T04:48:08.215Z,-1.97
2022-12-14T04:54:31.395Z,-1.98
2022-12-14T05:00:51.393Z,-1.96
2022-12-14T05:07:14.175Z,-1.96
2022-12-14T05:13:34.204Z,-1.96
2022-12-14T05:19:57.253Z,-1.9
2022-12-14T05:26:17.156Z,-1.88
2022-12-14T05:32:40.148Z,-1.89
2022-12-14T05:39:00.180Z,-1.86
2022-12-14T05:45:23.164Z,-1.82
2022-12-14T05:51:43.158Z,-1.78
2022-12-14T05:58:06.228Z,-1.75
2022-12-14T06:04:26.310Z,-1.77
2022-12-14T06:10:49.156Z,-1.77
2022-12-14T06:17:09.266Z,-1.75
2022-12-14T06:23:32.171Z,-1.7
2022-12-14T06:29:52.265Z,-1.6
2022-12-14T06:36:15.240Z,-1.55
2022-12-14T06:42:35.141Z,-1.53
2022-12-14T06:48:58.211Z,-1.54
2022-12-14T06:55:18.292Z,-1.54
2022-12-14T07:01:41.311Z,-1.58
2022-12-14T07:08:01.147Z,-1.6
2022-12-14T07:14:24.231Z,-1.58
2022-12-14T07:20:44.228Z,-1.54
2022-12-14T07:27:07.248Z,-1.51
2022-12-14T07:33:27.547Z,-1.45
2022-12-14T07:39:50.179Z,-1.45
2022-12-14T07:46:10.269Z,-1.43
2022-12-14T07:52:37.384Z,-1.36
2022-12-14T07:58:53.286Z,-1.29
2022-12-14T08:05:16.531Z,-1.23
2022-12-14T08:11:36.179Z,-1.17
2022-12-14T08:17:59.154Z,-1.1
2022-12-14T08:24:19.220Z,-1.05
2022-12-14T08:30:42.237Z,-1.03
2022-12-14T08:37:02.269Z,-1.02
2022-12-14T08:43:25.313Z,-0.97
2022-12-14T08:49:45.282Z,-0.93
2022-12-14T08:56:08.181Z,-0.91
2022-12-14T09:12:33.099Z,-0.87
2022-12-14T09:18:53.166Z,-0.86
2022-12-14T09:25:16.336Z,-0.92
2022-12-14T09:31:36.336Z,-0.98
2022-12-14T09:37:59.222Z,-1.02
2022-12-14T09:44:19.261Z,-0.98
2022-12-14T09:50:42.265Z,-0.93
2022-12-14T09:57:02.242Z,-0.93
2022-12-14T10:03:25.347Z,-0.89
2022-12-14T10:09:45.141Z,-0.87
2022-12-14T10:16:08.334Z,-0.83
2022-12-14T10:22:28.156Z,-0.84
2022-12-14T10:28:54.043Z,-0.9
2022-12-14T10:35:11.286Z,-0.83
2022-12-14T10:41:34.163Z,-0.74
2022-12-14T10:47:54.351Z,-0.76
2022-12-14T10:54:17.278Z,-0.76
2022-12-14T11:00:37.482Z,-0.77
2022-12-14T11:07:00.333Z,-0.84
2022-12-14T11:13:20.152Z,-0.88
2022-12-14T11:19:43.189Z,-0.87
2022-12-14T11:26:03.149Z,-0.83
2022-12-14T11:32:26.221Z,-0.82
2022-12-14T11:38:46.226Z,-0.84
2022-12-14T11:45:09.280Z,-0.84
2022-12-14T11:51:29.214Z,-0.76
2022-12-14T11:57:52.225Z,-0.7
2022-12-14T12:04:12.322Z,-0.68
2022-12-14T12:10:35.195Z,-0.7
2022-12-14T12:16:55.245Z,-0.77
2022-12-14T12:23:18.180Z,-0.72
2022-12-14T12:29:38.437Z,-0.6
2022-12-14T12:36:01.235Z,-0.6
2022-12-14T12:42:21.298Z,-0.51
2022-12-14T12:48:44.209Z,-0.45
2022-12-14T12:55:04.228Z,-0.39
2022-12-14T13:01:27.397Z,-0.34
2022-12-14T13:07:47.180Z,-0.25
2022-12-14T13:14:10.153Z,-0.23
2022-12-14T13:20:30.275Z,-0.28
2022-12-14T13:26:57.948Z,-0.3
2022-12-14T13:33:13.207Z,-0.37
2022-12-14T13:39:36.197Z,-0.34
2022-12-14T13:45:56.259Z,-0.25
2022-12-14T13:52:19.176Z,-0.19
2022-12-14T13:58:39.302Z,-0.09
2022-12-14T14:05:02.180Z,-0.02
2022-12-14T14:11:38.318Z,0.02
2022-12-14T14:17:45.243Z,0.06
2022-12-14T14:35:34.111Z,-0.09
2022-12-14T14:41:57.207Z,-0.1
2022-12-14T14:48:17.145Z,-0.07
2022-12-14T14:55:16.091Z,-0.06
2022-12-14T15:01:00.172Z,-0.1
2022-12-14T15:07:23.165Z,-0.16
2022-12-14T15:13:43.384Z,-0.2
2022-12-14T15:20:06.199Z,-0.32
2022-12-14T15:26:26.192Z,-0.39
2022-12-14T15:32:49.314Z,-0.4
2022-12-14T15:39:10.185Z,-0.41
2022-12-14T15:45:33.333Z,-0.41
2022-12-14T15:51:53.327Z,-0.44
2022-12-14T15:58:16.170Z,-0.49
2022-12-14T16:04:36.311Z,-0.43
2022-12-14T16:10:59.515Z,-0.36
2022-12-14T16:17:19.210Z,-0.32
2022-12-14T16:23:45.672Z,-0.32
2022-12-14T16:30:02.366Z,-0.4
2022-12-14T16:36:25.163Z,-0.53
2022-12-14T16:42:45.250Z,-0.6
2022-12-14T16:49:08.200Z,-0.65
2022-12-14T16:55:28.295Z,-0.66
2022-12-14T17:01:51.628Z,-0.67
2022-12-14T17:08:11.228Z,-0.72
2022-12-14T17:14:34.170Z,-0.76
2022-12-14T17:20:54.266Z,-0.85
2022-12-14T17:27:17.336Z,-0.96
2022-12-14T17:33:37.301Z,-1.11
2022-12-14T17:40:00.236Z,-1.25
2022-12-14T17:46:20.349Z,-1.36
2022-12-14T17:52:43.193Z,-1.43
2022-12-14T17:59:03.469Z,-1.51
2022-12-14T18:05:26.199Z,-1.63
2022-12-14T18:12:14.265Z,-1.82
2022-12-14T18:18:09.304Z,-1.9
2022-12-14T18:24:29.205Z,-1.98
2022-12-14T18:30:52.332Z,-2.03
2022-12-14T18:37:12.332Z,-2.13
2022-12-14T18:43:38.937Z,-2.22
2022-12-14T18:49:55.192Z,-2.32
2022-12-14T18:56:18.261Z,-2.44
2022-12-14T19:02:38.339Z,-2.56
2022-12-14T19:09:01.373Z,-2.67
2022-12-14T19:32:24.689Z,-2.98
2022-12-14T19:38:44.158Z,-3.12
2022-12-14T19:45:07.213Z,-3.24
2022-12-14T19:51:27.180Z,-3.29
2022-12-14T19:57:50.148Z,-3.4
2022-12-14T20:04:10.215Z,-3.5
2022-12-14T20:10:33.191Z,-3.53
2022-12-14T20:16:53.226Z,-3.58
2022-12-14T20:23:16.140Z,-3.64
2022-12-14T20:29:36.171Z,-3.7
2022-12-14T20:35:59.175Z,-3.77
2022-12-14T20:42:19.185Z,-3.92
2022-12-14T20:48:42.262Z,-4.04
2022-12-14T20:55:02.237Z,-4.12
2022-12-14T21:01:25.269Z,-4.28
2022-12-14T21:07:45.172Z,-4.34
2022-12-14T21:14:08.174Z,-4.37
2022-12-14T21:20:28.193Z,-4.4
2022-12-14T21:26:51.260Z,-4.45
2022-12-14T21:33:11.219Z,-4.51
2022-12-14T21:39:34.152Z,-4.5
2022-12-14T21:45:54.205Z,-4.49
2022-12-14T21:52:17.219Z,-4.51
2022-12-14T21:58:37.148Z,-4.52
2022-12-14T22:05:00.261Z,-4.63
2022-12-14T22:11:20.154Z,-4.71
2022-12-14T22:17:43.173Z,-4.81
2022-12-14T22:24:03.275Z,-4.91
2022-12-14T22:30:31.417Z,-4.94
2022-12-14T22:36:46.146Z,-5.02
2022-12-14T22:43:09.188Z,-4.98
2022-12-14T22:49:29.146Z,-4.98
2022-12-14T22:55:52.214Z,-5
2022-12-14T23:18:58.172Z,-5.51
2022-12-14T23:25:18.184Z,-5.48
2022-12-14T23:31:41.195Z,-5.4
2022-12-14T23:38:01.371Z,-5.37
2022-12-14T23:44:24.252Z,-5.45
2022-12-14T23:50:44.313Z,-5.47
2022-12-14T23:57:10.585Z,-5.41
